createdAt,value
2022-08-10T00:01:05.832Z,18.26
2022-08-10T00:03:32.730Z,18.38
2022-08-10T00:05:59.641Z,18.31
2022-08-10T00:08:26.665Z,18.09
2022-08-10T00:10:56.330Z,18.23
2022-08-10T00:13:25.335Z,18.13
2022-08-10T00:15:54.883Z,18.10
2022-08-10T00:18:28.927Z,17.82
2022-08-10T00:21:03.281Z,18.03
2022-08-10T00:23:30.218Z,18.45
2022-08-10T00:25:57.173Z,18.59
2022-08-10T00:28:23.979Z,18.38
2022-08-10T00:30:50.859Z,18.41
2022-08-10T00:33:17.785Z,18.70
2022-08-10T00:35:44.644Z,18.91
2022-08-10T00:38:11.501Z,19.09
2022-08-10T00:40:38.732Z,19.23
2022-08-10T00:43:06.666Z,19.12
2022-08-10T00:45:34.502Z,18.99
2022-08-10T00:48:01.360Z,18.96
2022-08-10T00:50:28.306Z,18.86
2022-08-10T00:52:55.307Z,18.73
2022-08-10T00:55:22.394Z,18.89
2022-08-10T00:57:55.047Z,19.06
2022-08-10T01:00:24.104Z,18.49
2022-08-10T01:02:51.902Z,18.64
2022-08-10T01:05:20.458Z,18.53
2022-08-10T01:08:10.903Z,18.50
2022-08-10T01:10:56.112Z,18.42
2022-08-10T01:13:43.335Z,18.21
2022-08-10T01:16:25.277Z,18.19
2022-08-10T01:19:04.698Z,18.31
2022-08-10T01:21:56.810Z,18.51
2022-08-10T01:24:46.550Z,18.54
2022-08-10T01:27:45.755Z,18.57
2022-08-10T01:30:14.638Z,18.46
2022-08-10T01:33:05.281Z,18.58
2022-08-10T01:35:53.178Z,18.76
2022-08-10T01:38:26.200Z,18.73
2022-08-10T01:41:06.933Z,19.10
2022-08-10T01:43:37.066Z,18.73
2022-08-10T01:46:06.038Z,19.08
2022-08-10T01:48:38.897Z,18.99
2022-08-10T01:51:17.605Z,18.85
2022-08-10T01:53:51.914Z,18.75
2022-08-10T01:56:22.406Z,18.95
2022-08-10T01:58:54.064Z,18.79
2022-08-10T02:01:24.477Z,18.96
2022-08-10T02:04:03.913Z,18.73
2022-08-10T02:06:37.439Z,18.87
2022-08-10T02:09:07.395Z,18.80
2022-08-10T02:11:55.752Z,18.60
2022-08-10T02:14:33.434Z,18.63
2022-08-10T02:17:09.342Z,18.54
2022-08-10T02:20:01.619Z,18.54
2022-08-10T02:22:37.381Z,18.52
2022-08-10T02:25:41.002Z,18.28
2022-08-10T02:28:04.373Z,17.94
2022-08-10T02:30:32.759Z,17.81
2022-08-10T02:33:01.429Z,17.72
2022-08-10T02:35:42.182Z,17.60
2022-08-10T02:38:23.415Z,17.71
2022-08-10T02:45:01.045Z,18.21
2022-08-10T02:45:22.069Z,17.92
2022-08-10T02:47:21.287Z,18.22
2022-08-10T02:49:55.983Z,18.22
2022-08-10T02:52:29.521Z,18.08
2022-08-10T02:55:17.050Z,17.87
2022-08-10T02:58:14.579Z,17.52
2022-08-10T03:00:43.811Z,17.82
2022-08-10T03:03:17.837Z,17.88
2022-08-10T03:05:47.753Z,17.93
2022-08-10T03:08:19.896Z,17.56
2022-08-10T03:10:49.368Z,17.46
2022-08-10T03:13:18.733Z,17.55
2022-08-10T03:15:48.065Z,17.48
2022-08-10T03:18:16.453Z,17.39
2022-08-10T03:20:44.931Z,17.46
2022-08-10T03:23:16.376Z,17.69
2022-08-10T03:25:53.140Z,17.68
2022-08-10T03:28:27.638Z,17.71
2022-08-10T03:30:55.923Z,17.55
2022-08-10T03:33:26.270Z,17.62
2022-08-10T03:36:42.045Z,18.00
2022-08-10T03:38:43.572Z,18.01
2022-08-10T03:41:14.354Z,18.01
2022-08-10T03:43:47.657Z,17.99
2022-08-10T03:46:18.466Z,18.00
2022-08-10T03:48:49.552Z,17.99
2022-08-10T03:51:18.790Z,18.01
2022-08-10T03:54:03.536Z,18.04
2022-08-10T03:56:38.501Z,18.03
2022-08-10T03:59:11.885Z,18.11
2022-08-10T04:02:52.384Z,18.09
2022-08-10T04:04:26.409Z,17.88
2022-08-10T04:06:58.355Z,17.94
2022-08-10T04:09:53.190Z,17.62
2022-08-10T04:12:17.037Z,17.58
2022-08-10T04:14:49.840Z,17.58
2022-08-10T04:18:03.133Z,17.59
2022-08-10T04:20:34.560Z,17.70
2022-08-10T04:23:08.045Z,17.98
2022-08-10T04:25:36.467Z,18.08
2022-08-10T04:28:03.869Z,18.08
2022-08-10T04:30:32.404Z,18.10
2022-08-10T04:33:02.292Z,18.24
2022-08-10T04:35:30.129Z,18.08
2022-08-10T04:37:59.246Z,18.05
2022-08-10T04:40:30.217Z,18.31
2022-08-10T04:43:12.846Z,18.40
2022-08-10T04:45:48.497Z,18.39
2022-08-10T04:48:40.724Z,18.45
2022-08-10T04:51:15.235Z,18.45
2022-08-10T04:54:04.206Z,18.42
2022-08-10T04:56:34.631Z,18.62
2022-08-10T04:59:01.401Z,18.56
2022-08-10T05:02:21.290Z,18.57
2022-08-10T05:04:36.308Z,18.26
2022-08-10T05:07:03.627Z,18.44
2022-08-10T05:09:30.485Z,18.46
2022-08-10T05:11:57.283Z,18.50
2022-08-10T05:14:24.084Z,18.63
2022-08-10T05:16:50.895Z,18.71
2022-08-10T05:19:20.207Z,18.77
2022-08-10T05:22:05.173Z,18.85
2022-08-10T05:24:32.433Z,18.97
2022-08-10T05:27:08.400Z,19.40
2022-08-10T05:29:37.627Z,19.37
2022-08-10T05:32:04.952Z,19.52
2022-08-10T05:34:31.842Z,19.65
2022-08-10T05:36:58.673Z,19.77
2022-08-10T05:39:31.786Z,19.79
2022-08-10T05:42:01.002Z,20.11
2022-08-10T05:44:29.178Z,20.16
2022-08-10T05:46:56.272Z,20.21
2022-08-10T05:49:23.130Z,20.36
2022-08-10T05:51:50.076Z,20.27
2022-08-10T05:54:17.486Z,20.38
2022-08-10T05:56:56.612Z,20.54
2022-08-10T06:00:35.540Z,20.46
2022-08-10T06:02:40.709Z,20.46
2022-08-10T06:05:13.828Z,20.41
2022-08-10T06:07:53.272Z,20.50
2022-08-10T06:10:31.479Z,20.62
2022-08-10T06:13:29.654Z,20.85
2022-08-10T06:16:01.265Z,20.88
2022-08-10T06:18:29.147Z,20.79
2022-08-10T06:20:57.442Z,20.98
2022-08-10T06:23:26.274Z,21.05
2022-08-10T06:26:11.376Z,21.28
2022-08-10T06:29:02.504Z,21.63
2022-08-10T06:31:48.032Z,21.62
2022-08-10T06:34:21.085Z,21.50
2022-08-10T06:36:48.684Z,21.35
2022-08-10T06:42:19.857Z,21.66
2022-08-10T06:45:06.113Z,21.78
2022-08-10T06:47:39.003Z,21.52
2022-08-10T06:50:44.997Z,21.75
2022-08-10T06:53:14.005Z,21.84
2022-08-10T06:55:55.149Z,22.18
2022-08-10T06:58:27.097Z,22.30
2022-08-10T07:00:56.637Z,22.36
2022-08-10T07:03:31.401Z,22.84
2022-08-10T07:06:00.615Z,23.03
2022-08-10T07:08:33.155Z,22.52
2022-08-10T07:11:02.698Z,22.50
2022-08-10T07:14:14.626Z,22.51
2022-08-10T07:16:19.654Z,23.03
2022-08-10T07:18:48.806Z,22.98
2022-08-10T07:21:18.539Z,23.33
2022-08-10T07:23:57.344Z,23.70
2022-08-10T07:26:28.869Z,23.58
2022-08-10T07:28:56.147Z,24.08
2022-08-10T07:31:54.671Z,23.46
2022-08-10T07:34:21.678Z,23.47
2022-08-10T07:37:00.020Z,23.36
2022-08-10T07:40:01.994Z,23.27
2022-08-10T07:42:20.440Z,23.67
2022-08-10T07:44:48.448Z,23.57
2022-08-10T07:47:19.929Z,23.72
2022-08-10T07:50:10.559Z,24.07
2022-08-10T07:52:40.017Z,24.36
2022-08-10T07:55:08.427Z,24.16
2022-08-10T07:57:40.286Z,24.32
2022-08-10T08:00:10.841Z,23.98
2022-08-10T08:02:52.336Z,24.37
2022-08-10T08:05:53.689Z,24.31
2022-08-10T08:08:10.623Z,24.64
2022-08-10T08:10:38.866Z,24.45
2022-08-10T08:13:06.026Z,24.68
2022-08-10T08:16:20.344Z,25.10
2022-08-10T08:18:25.363Z,25.08
2022-08-10T08:20:54.359Z,25.01
2022-08-10T08:24:10.319Z,25.31
2022-08-10T08:26:11.765Z,25.51
2022-08-10T08:28:45.595Z,25.25
2022-08-10T08:31:18.197Z,25.09
2022-08-10T08:33:46.077Z,25.12
2022-08-10T08:36:16.741Z,25.51
2022-08-10T08:38:44.573Z,25.34
2022-08-10T08:41:45.972Z,25.31
2022-08-10T08:44:31.678Z,25.40
2022-08-10T08:48:04.645Z,25.32
2022-08-10T08:50:35.785Z,25.96
2022-08-10T08:54:02.594Z,26.41
2022-08-10T08:56:51.820Z,26.63
2022-08-10T08:59:30.866Z,26.72
2022-08-10T09:02:28.821Z,27.02
2022-08-10T09:05:16.896Z,26.88
2022-08-10T09:08:05.305Z,27.38
2022-08-10T09:11:09.165Z,27.65
2022-08-10T09:13:48.889Z,27.43
2022-08-10T09:16:15.742Z,27.41
2022-08-10T09:18:46.679Z,27.51
2022-08-10T09:21:23.789Z,27.48
2022-08-10T09:24:06.008Z,27.77
2022-08-10T09:26:42.240Z,27.33
2022-08-10T09:29:13.653Z,27.82
2022-08-10T09:31:55.801Z,27.21
2022-08-10T09:36:26.580Z,27.50
2022-08-10T09:38:01.899Z,27.88
2022-08-10T09:40:59.454Z,28.45
2022-08-10T09:43:41.195Z,28.77
2022-08-10T09:46:22.429Z,28.80
2022-08-10T09:49:08.913Z,29.27
2022-08-10T09:51:55.065Z,29.21
2022-08-10T09:54:48.846Z,29.03
2022-08-10T09:57:44.643Z,29.79
2022-08-10T10:00:12.500Z,29.49
2022-08-10T10:03:00.425Z,29.05
2022-08-10T10:05:50.306Z,29.15
2022-08-10T10:08:19.116Z,28.93
2022-08-10T10:10:57.728Z,28.51
2022-08-10T10:13:41.522Z,29.27
2022-08-10T10:16:28.524Z,29.01
2022-08-10T10:19:07.944Z,29.48
2022-08-10T10:21:54.390Z,28.97
2022-08-10T10:24:30.437Z,29.31
2022-08-10T10:27:03.589Z,29.39
2022-08-10T10:29:59.565Z,29.60
2022-08-10T10:32:47.832Z,29.28
2022-08-10T10:35:38.063Z,29.92
2022-08-10T10:38:09.020Z,30.08
2022-08-10T10:41:07.138Z,29.92
2022-08-10T10:43:47.579Z,29.83
2022-08-10T10:46:37.540Z,30.31
2022-08-10T10:49:31.224Z,29.67
2022-08-10T10:52:14.502Z,30.79
2022-08-10T10:55:00.168Z,30.90
2022-08-10T10:57:58.622Z,30.66
2022-08-10T11:00:37.322Z,30.13
2022-08-10T11:03:21.579Z,30.76
2022-08-10T11:06:14.528Z,31.13
2022-08-10T11:08:47.842Z,30.73
2022-08-10T11:12:00.871Z,30.07
2022-08-10T11:14:39.225Z,30.48
2022-08-10T11:17:33.713Z,30.72
2022-08-10T11:20:27.993Z,31.62
2022-08-10T11:23:20.423Z,31.61
2022-08-10T11:26:00.852Z,29.90
2022-08-10T11:28:30.473Z,30.50
2022-08-10T11:31:10.928Z,31.51
2022-08-10T11:34:31.993Z,30.95
2022-08-10T11:36:55.047Z,30.17
2022-08-10T11:39:30.916Z,30.30
2022-08-10T11:42:08.929Z,30.20
2022-08-10T11:44:55.736Z,29.84
2022-08-10T11:47:27.577Z,30.51
2022-08-10T11:50:08.545Z,30.63
2022-08-10T11:52:51.690Z,30.60
2022-08-10T11:55:22.154Z,29.89
2022-08-10T11:57:55.139Z,30.15
2022-08-10T12:00:24.581Z,30.51
2022-08-10T12:02:55.616Z,29.62
2022-08-10T12:05:51.569Z,29.67
2022-08-10T12:10:04.377Z,29.78
2022-08-10T12:11:22.418Z,29.63
2022-08-10T12:14:23.999Z,29.67
2022-08-10T12:16:59.392Z,30.43
2022-08-10T12:20:02.012Z,30.73
2022-08-10T12:22:36.306Z,29.76
2022-08-10T12:25:07.563Z,30.00
2022-08-10T12:27:54.909Z,30.35
2022-08-10T12:30:32.389Z,30.71
2022-08-10T12:33:09.389Z,29.91
2022-08-10T12:35:56.135Z,30.26
2022-08-10T12:38:36.948Z,30.77
2022-08-10T12:41:16.264Z,30.68
2022-08-10T12:44:07.488Z,30.84
2022-08-10T12:46:41.737Z,30.69
2022-08-10T12:49:23.181Z,30.25
2022-08-10T12:52:27.508Z,30.42
2022-08-10T12:54:56.963Z,31.42
2022-08-10T12:57:26.023Z,31.40
2022-08-10T12:59:58.105Z,31.12
2022-08-10T13:02:32.941Z,31.05
2022-08-10T13:05:04.607Z,30.51
2022-08-10T13:08:03.782Z,31.37
2022-08-10T13:10:27.743Z,30.86
2022-08-10T13:12:58.068Z,31.37
2022-08-10T13:15:48.747Z,31.30
2022-08-10T13:18:26.291Z,32.42
2022-08-10T13:20:55.997Z,31.57
2022-08-10T13:23:27.066Z,30.99
2022-08-10T13:25:58.142Z,31.70
2022-08-10T13:28:40.091Z,32.23
2022-08-10T13:31:11.346Z,32.12
2022-08-10T13:34:40.106Z,32.22
2022-08-10T13:36:41.643Z,31.68
2022-08-10T13:39:09.448Z,31.75
2022-08-10T13:41:42.554Z,31.27
2022-08-10T13:44:12.857Z,30.55
2022-08-10T13:46:42.274Z,30.73
2022-08-10T13:49:11.257Z,30.42
2022-08-10T13:51:57.084Z,30.37
2022-08-10T13:54:29.545Z,30.37
2022-08-10T13:56:57.923Z,29.60
2022-08-10T14:00:33.100Z,29.83
2022-08-10T14:02:22.837Z,30.56
2022-08-10T14:04:50.675Z,29.59
2022-08-10T14:07:18.391Z,30.09
2022-08-10T14:09:47.674Z,29.16
2022-08-10T14:12:16.634Z,28.85
2022-08-10T14:14:45.299Z,28.97
2022-08-10T14:17:22.245Z,29.09
2022-08-10T14:19:58.826Z,29.08
2022-08-10T14:22:33.682Z,29.23
2022-08-10T14:25:09.558Z,28.66
2022-08-10T14:28:02.448Z,29.44
2022-08-10T14:30:30.972Z,29.73
2022-08-10T14:33:04.197Z,29.43
2022-08-10T14:36:20.490Z,29.58
2022-08-10T14:38:26.789Z,29.92
2022-08-10T14:40:57.011Z,29.35
2022-08-10T14:43:34.608Z,29.30
2022-08-10T14:46:08.207Z,29.37
2022-08-10T14:48:43.420Z,29.79
2022-08-10T14:51:15.792Z,29.61
2022-08-10T14:53:44.500Z,29.26
2022-08-10T14:56:14.509Z,29.38
2022-08-10T14:59:05.258Z,29.01
2022-08-10T15:02:00.691Z,29.06
2022-08-10T15:04:28.373Z,29.30
2022-08-10T15:07:01.261Z,29.45
2022-08-10T15:09:36.288Z,29.16
2022-08-10T15:12:27.287Z,28.61
2022-08-10T15:15:00.737Z,28.81
2022-08-10T15:17:39.485Z,29.41
2022-08-10T15:20:20.431Z,28.57
2022-08-10T15:23:30.737Z,28.96
2022-08-10T15:26:10.691Z,29.25
2022-08-10T15:29:22.385Z,29.40
2022-08-10T15:32:00.122Z,29.86
2022-08-10T15:34:47.655Z,29.80
2022-08-10T15:37:36.459Z,30.39
2022-08-10T15:40:24.243Z,30.24
2022-08-10T15:43:20.087Z,29.79
2022-08-10T15:46:03.215Z,29.49
2022-08-10T15:48:43.707Z,28.93
2022-08-10T15:51:33.707Z,28.08
2022-08-10T15:54:18.631Z,27.79
2022-08-10T15:57:18.458Z,28.14
2022-08-10T15:59:55.168Z,27.96
2022-08-10T16:02:26.097Z,27.88
2022-08-10T16:05:16.328Z,28.42
2022-08-10T16:07:50.328Z,27.79
2022-08-10T16:10:28.247Z,27.27
2022-08-10T16:13:50.366Z,28.25
2022-08-10T16:15:58.616Z,27.49
2022-08-10T16:18:28.666Z,27.27
2022-08-10T16:21:00.574Z,26.93
2022-08-10T16:23:35.090Z,28.09
2022-08-10T16:26:13.322Z,28.29
2022-08-10T16:28:56.171Z,28.30
2022-08-10T16:31:25.635Z,27.85
2022-08-10T16:33:56.538Z,27.67
2022-08-10T16:36:33.468Z,27.46
2022-08-10T16:39:01.161Z,27.23
2022-08-10T16:42:04.219Z,27.17
2022-08-10T16:44:23.438Z,27.59
2022-08-10T16:46:51.387Z,27.35
2022-08-10T16:49:19.701Z,27.34
2022-08-10T16:51:49.264Z,26.72
2022-08-10T16:54:22.374Z,26.48
2022-08-10T16:56:53.315Z,26.13
2022-08-10T16:59:24.342Z,26.44
2022-08-10T17:01:53.935Z,26.84
2022-08-10T17:04:23.616Z,26.81
2022-08-10T17:06:56.821Z,26.76
2022-08-10T17:09:33.127Z,26.65
2022-08-10T17:12:10.326Z,26.64
2022-08-10T17:14:42.649Z,26.48
2022-08-10T17:17:18.613Z,26.78
2022-08-10T17:19:45.936Z,26.69
2022-08-10T17:22:25.257Z,26.05
2022-08-10T17:25:02.042Z,26.34
2022-08-10T17:28:33.281Z,26.47
2022-08-10T17:30:35.267Z,27.32
2022-08-10T17:33:13.886Z,27.74
2022-08-10T17:35:44.041Z,26.59
2022-08-10T17:38:21.569Z,26.33
2022-08-10T17:40:52.820Z,26.13
2022-08-10T17:43:58.476Z,26.40
2022-08-10T17:46:14.648Z,25.45
2022-08-10T17:48:42.898Z,25.52
2022-08-10T17:51:15.571Z,25.99
2022-08-10T17:53:50.945Z,25.73
2022-08-10T17:56:21.070Z,25.35
2022-08-10T17:59:16.828Z,25.28
2022-08-10T18:02:01.593Z,25.37
2022-08-10T18:04:41.482Z,24.85
2022-08-10T18:07:10.957Z,24.71
2022-08-10T18:09:54.918Z,24.55
2022-08-10T18:12:36.031Z,24.41
2022-08-10T18:15:12.312Z,24.26
2022-08-10T18:17:46.050Z,24.42
2022-08-10T18:20:16.061Z,24.33
2022-08-10T18:22:50.461Z,24.70
2022-08-10T18:25:26.960Z,24.73
2022-08-10T18:28:03.766Z,24.59
2022-08-10T18:30:36.297Z,24.32
2022-08-10T18:33:10.644Z,24.55
2022-08-10T18:35:39.554Z,24.50
2022-08-10T18:38:07.730Z,24.66
2022-08-10T18:40:38.131Z,24.13
2022-08-10T18:44:08.018Z,23.97
2022-08-10T18:45:58.733Z,24.13
2022-08-10T18:48:37.231Z,23.95
2022-08-10T18:51:06.632Z,24.06
2022-08-10T18:53:38.443Z,24.06
2022-08-10T18:56:17.033Z,23.77
2022-08-10T18:59:03.189Z,23.71
2022-08-10T19:01:47.265Z,23.98
2022-08-10T19:04:48.678Z,23.67
2022-08-10T19:07:45.671Z,23.73
2022-08-10T19:10:12.436Z,23.92
2022-08-10T19:12:55.052Z,23.76
2022-08-10T19:16:00.187Z,23.48
2022-08-10T19:18:31.528Z,23.45
2022-08-10T19:21:21.305Z,23.34
2022-08-10T19:24:23.425Z,23.17
2022-08-10T19:27:19.623Z,22.98
2022-08-10T19:30:09.222Z,22.74
2022-08-10T19:33:01.368Z,22.78
2022-08-10T19:36:04.579Z,22.92
2022-08-10T19:38:34.468Z,22.83
2022-08-10T19:41:31.991Z,23.01
2022-08-10T19:44:26.824Z,22.66
2022-08-10T19:47:02.562Z,22.87
2022-08-10T19:49:49.945Z,22.83
2022-08-10T19:52:37.986Z,22.71
2022-08-10T19:55:33.329Z,22.52
2022-08-10T19:58:10.958Z,22.30
2022-08-10T20:00:46.832Z,22.21
2022-08-10T20:03:25.692Z,22.38
2022-08-10T20:06:18.148Z,22.38
2022-08-10T20:08:54.450Z,22.03
2022-08-10T20:12:04.798Z,21.41
2022-08-10T20:15:06.287Z,21.89
2022-08-10T20:17:51.479Z,21.77
2022-08-10T20:20:36.049Z,21.22
2022-08-10T20:23:12.405Z,20.89
2022-08-10T20:25:42.411Z,20.93
2022-08-10T20:28:18.633Z,20.88
2022-08-10T20:30:52.029Z,20.80
2022-08-10T20:33:34.439Z,20.79
2022-08-10T20:36:07.471Z,20.71
2022-08-10T20:38:40.408Z,20.57
2022-08-10T20:41:25.417Z,20.61
2022-08-10T20:44:09.913Z,20.68
2022-08-10T20:46:55.926Z,20.67
2022-08-10T20:49:40.663Z,20.73
2022-08-10T20:52:08.102Z,20.87
2022-08-10T20:54:42.158Z,21.02
2022-08-10T20:57:53.467Z,20.87
2022-08-10T21:00:09.940Z,20.91
2022-08-10T21:03:06.513Z,21.01
2022-08-10T21:06:31.688Z,21.06
2022-08-10T21:09:38.016Z,20.97
2022-08-10T21:12:18.289Z,21.00
2022-08-10T21:15:11.395Z,20.99
2022-08-10T21:17:56.072Z,20.98
2022-08-10T21:20:33.693Z,20.97
2022-08-10T21:23:05.832Z,21.25
2022-08-10T21:25:56.732Z,21.01
2022-08-10T21:29:08.915Z,20.89
2022-08-10T21:32:06.829Z,20.75
2022-08-10T21:35:00.948Z,20.35
2022-08-10T21:37:51.877Z,20.46
2022-08-10T21:41:17.181Z,20.40
2022-08-10T21:44:32.014Z,20.43
2022-08-10T21:48:17.381Z,20.43
2022-08-10T21:51:16.368Z,20.28
2022-08-10T21:54:25.891Z,20.25
2022-08-10T21:57:26.086Z,20.37
2022-08-10T22:00:28.563Z,20.46
2022-08-10T22:03:17.791Z,20.19
2022-08-10T22:06:09.192Z,20.10
2022-08-10T22:09:09.552Z,20.32
2022-08-10T22:12:00.901Z,20.25
2022-08-10T22:14:52.311Z,20.31
2022-08-10T22:18:00.127Z,20.28
2022-08-10T22:20:53.225Z,20.29
2022-08-10T22:23:41.603Z,20.43
2022-08-10T22:30:01.737Z,20.49
2022-08-10T22:31:26.947Z,20.35
2022-08-10T22:33:09.493Z,20.22
2022-08-10T22:36:24.411Z,20.36
2022-08-10T22:40:11.429Z,19.85
2022-08-10T22:42:59.003Z,19.77
2022-08-10T22:45:53.567Z,19.63
2022-08-10T22:48:39.465Z,19.63
2022-08-10T22:51:15.035Z,19.77
2022-08-10T22:54:06.711Z,19.68
2022-08-10T22:56:59.492Z,19.74
2022-08-10T22:59:31.912Z,19.81
2022-08-10T23:02:07.907Z,19.85
2022-08-10T23:04:44.244Z,19.85
2022-08-10T23:07:17.908Z,19.82
2022-08-10T23:10:05.612Z,19.60
2022-08-10T23:12:47.646Z,19.43
2022-08-10T23:15:56.850Z,19.53
2022-08-10T23:18:55.172Z,19.26
2022-08-10T23:21:27.405Z,19.53
2022-08-10T23:24:17.285Z,19.11
2022-08-10T23:26:45.412Z,19.29
2022-08-10T23:29:16.880Z,19.35
2022-08-10T23:31:50.255Z,19.74
2022-08-10T23:34:36.050Z,19.69
2022-08-10T23:37:06.164Z,19.85
2022-08-10T23:39:37.512Z,19.50
2022-08-10T23:42:08.526Z,19.57
2022-08-10T23:44:41.595Z,19.60
2022-08-10T23:47:10.371Z,19.40
2022-08-10T23:49:39.131Z,19.31
2022-08-10T23:52:15.679Z,19.39
2022-08-10T23:55:05.135Z,19.43
2022-08-10T23:57:35.154Z,19.30
